Commodore Clipper — C6QQ3 — position and weather

sailwx.info

Track history (hours):
 
Tides and Currents Weather Stations Pressure Air Temp Water Temp Dewpoint Dewpoint Depression Visibility Wind Speed Wind Dir Waves Ship Positions

Commodore Clipper

Operator: Condor Marine Services

Last reported at 2017-Jul-22 12:30 UTC. Time now 2017-Jul-22 12:41 UTC.
Position N 49°49' W 001°56'.

Length 130 m; draft 5.2 m.

Type: Ship. MMSI: 308094000.

Date/timePositionNaut miles runAvg speedWind from/ knotsBaromVisibWave heightAir tempDewpointWater temp
2017-Jul-22 12:30N 49°49' W 001°56'918.8
2017-Jul-22 12:00N 49°56' W 001°47'918.1
2017-Jul-22 11:30N 50°04' W 001°39'917.5
2017-Jul-22 11:00N 50°12' W 001°33'2217.0
2017-Jul-22 09:44N 50°30' W 001°15'416.4
2017-Jul-22 09:29N 50°33' W 001°11'816.2
2017-Jul-22 09:00N 50°40' W 001°04'714.4
2017-Jul-22 08:30N 50°47' W 001°06'2 3.9
2017-Jul-22 08:00N 50°49' W 001°06'0 0.0
2017-Jul-22 07:30N 50°49' W 001°06'0 0.0
2017-Jul-22 07:00N 50°49' W 001°06'0 0.0
2017-Jul-22 06:30N 50°49' W 001°06'0 0.0
2017-Jul-22 06:00N 50°49' W 001°06'0 0.0
2017-Jul-22 05:30N 50°49' W 001°06'1 2.5
2017-Jul-22 05:00N 50°48' W 001°07'714.0
2017-Jul-22 04:30N 50°42' W 001°01'1215.6
2017-Jul-22 03:44N 50°31' W 001°10'1315.6
2017-Jul-22 02:54N 50°22' W 001°25'615.0
2017-Jul-22 02:30N 50°18' W 001°31'816.4
2017-Jul-22 02:00N 50°11' W 001°36'815.3
2017-Jul-22 01:30N 50°04' W 001°41'714.8
2017-Jul-22 01:00N 49°57' W 001°47'612.5
2017-Jul-22 00:30N 49°53' W 001°53'713.6
2017-Jul-22 00:00N 49°47' W 001°59'2 0.2
2017-Jul-21 12:31N 49°47' W 002°02'018.8
2017-Jul-21 12:30N 49°47' W 002°02'918.2
2017-Jul-21 12:00N 49°54' W 001°54'918.5
2017-Jul-21 11:31N 50°02' W 001°45'918.4
2017-Jul-21 11:01N 50°09' W 001°35'2517.3
2017-Jul-21 09:34N 50°30' W 001°15'417.4
2017-Jul-21 09:20N 50°33' W 001°11'717.5
2017-Jul-21 08:58N 50°39' W 001°06'614.2
2017-Jul-21 08:31N 50°45' W 001°05'4 7.4
2017-Jul-21 08:00N 50°49' W 001°06'0 0.0
2017-Jul-21 07:30N 50°49' W 001°06'0 0.0
2017-Jul-21 07:00N 50°49' W 001°06'0 0.0
2017-Jul-21 06:30N 50°49' W 001°06'0 0.0
2017-Jul-21 06:00N 50°49' W 001°06'0 0.0
2017-Jul-21 05:30N 50°49' W 001°06'1 2.4
2017-Jul-21 05:01N 50°48' W 001°07'714.1
2017-Jul-21 04:31N 50°42' W 001°01'815.6
2017-Jul-21 04:00N 50°35' W 001°08'1813.7
2017-Jul-21 02:43N 50°22' W 001°26'415.6
2017-Jul-21 02:27N 50°19' W 001°31'716.9
2017-Jul-21 02:01N 50°13' W 001°38'816.4
2017-Jul-21 01:31N 50°06' W 001°44'815.7
2017-Jul-21 01:01N 50°01' W 001°53'714.0
2017-Jul-21 00:30N 49°55' W 001°60'23 2.2
2017-Jul-20 14:00N 49°33' W 002°10'1516.3
2017-Jul-20 13:05N 49°46' W 002°00'116.7
2017-Jul-20 13:00N 49°47' W 001°59'917.2
2017-Jul-20 12:31N 49°54' W 001°50'917.6
2017-Jul-20 12:00N 50°01' W 001°42'917.8
2017-Jul-20 11:30N 50°09' W 001°35'917.5
2017-Jul-20 11:00N 50°17' W 001°29'1617.9
2017-Jul-20 10:05N 50°31' W 001°15'118.7
2017-Jul-20 10:00N 50°32' W 001°13'919.0
2017-Jul-20 09:30N 50°39' W 001°05'713.2
2017-Jul-20 09:00N 50°46' W 001°05'3 5.6
2017-Jul-20 08:30N 50°49' W 001°06'0 0.0
2017-Jul-20 08:00N 50°49' W 001°06'0 0.0
2017-Jul-20 07:30N 50°49' W 001°06'0 0.0
2017-Jul-20 07:00N 50°49' W 001°06'0 0.0
2017-Jul-20 06:30N 50°49' W 001°06'0 0.0
2017-Jul-20 06:00N 50°49' W 001°06'2 3.9
2017-Jul-20 05:31N 50°47' W 001°06'713.3
2017-Jul-20 05:00N 50°40' W 001°04'815.4
2017-Jul-20 04:30N 50°34' W 001°11'1214.3
2017-Jul-20 03:40N 50°23' W 001°20'312.8
2017-Jul-20 03:23N 50°20' W 001°23'512.8
2017-Jul-20 03:00N 50°16' W 001°27'713.2
2017-Jul-20 02:30N 50°11' W 001°34'713.5
2017-Jul-20 02:01N 50°06' W 001°40'713.7
2017-Jul-20 01:31N 50°00' W 001°46'917.2
2017-Jul-20 01:00N 49°53' W 001°53'44 5.1
2017-Jul-19 16:24N 49°10' W 002°09'810.6
2017-Jul-19 15:40N 49°13' W 002°20'515.0
2017-Jul-19 15:19N 49°18' W 002°19'615.4
2017-Jul-19 14:58N 49°23' W 002°16'1315.3
2017-Jul-19 14:07N 49°35' W 002°08'315.0
2017-Jul-19 13:55N 49°38' W 002°07'913.8
2017-Jul-19 13:18N 49°46' W 002°01'415.1
2017-Jul-19 13:00N 49°49' W 001°56'816.5
2017-Jul-19 12:30N 49°55' W 001°48'817.0
2017-Jul-19 12:01N 50°02' W 001°41'917.5
2017-Jul-19 11:30N 50°10' W 001°34'2518.0
2017-Jul-19 10:08N 50°31' W 001°14'318.8
2017-Jul-19 09:59N 50°33' W 001°12'918.8
2017-Jul-19 09:30N 50°41' W 001°03'714.4
2017-Jul-19 09:00N 50°47' W 001°07'1 2.9
2017-Jul-19 08:30N 50°49' W 001°06'0 0.0
2017-Jul-19 08:01N 50°49' W 001°06'0 0.0
2017-Jul-19 07:30N 50°49' W 001°06'0 0.0
2017-Jul-19 07:00N 50°49' W 001°06'0 0.0
2017-Jul-19 06:30N 50°49' W 001°06'2 3.4
2017-Jul-19 06:00N 50°47' W 001°06'714.2
2017-Jul-19 05:31N 50°40' W 001°04'3417.3
2017-Jul-19 03:31N 50°15' W 001°41'014.3
2017-Jul-19 03:30N 50°15' W 001°41'817.0
2017-Jul-19 03:01N 50°07' W 001°45'917.4
2017-Jul-19 02:30N 49°59' W 001°51'917.9
2017-Jul-19 02:00N 49°51' W 001°58'43 7.5
2017-Jul-18 20:16N 49°10' W 002°18'417.1
2017-Jul-18 20:00N 49°14' W 002°21'612.2
2017-Jul-18 19:30N 49°19' W 002°26'3 6.2
2017-Jul-18 18:57N 49°16' W 002°24'3 7.3
2017-Jul-18 18:30N 49°19' W 002°25'610.1
2017-Jul-18 17:57N 49°24' W 002°28'4 8.2
2017-Jul-18 17:30N 49°27' W 002°32'0 0.0
2017-Jul-18 16:57N 49°27' W 002°32'0 0.0
2017-Jul-18 16:27N 49°27' W 002°32'0 0.0
2017-Jul-18 16:00N 49°27' W 002°32'1 1.6
2017-Jul-18 15:27N 49°27' W 002°30'1812.6
2017-Jul-18 14:00N 49°38' W 002°07'611.6
2017-Jul-18 13:30N 49°43' W 002°04'612.2
2017-Jul-18 13:00N 49°48' W 001°58'815.7
2017-Jul-18 12:30N 49°54' W 001°50'816.8
2017-Jul-18 12:00N 50°01' W 001°42'917.6
2017-Jul-18 11:30N 50°08' W 001°35'917.9
2017-Jul-18 11:01N 50°16' W 001°29'918.2
2017-Jul-18 10:31N 50°23' W 001°20'918.0
2017-Jul-18 10:01N 50°31' W 001°14'918.7
2017-Jul-18 09:30N 50°39' W 001°05'714.8
2017-Jul-18 09:01N 50°46' W 001°06'2 4.9
2017-Jul-18 08:30N 50°49' W 001°06'0 0.0
2017-Jul-18 08:00N 50°49' W 001°06'0 0.0
2017-Jul-18 07:30N 50°49' W 001°06'0 0.0
2017-Jul-18 07:00N 50°49' W 001°06'0 0.0
2017-Jul-18 06:30N 50°49' W 001°06'0 0.0
2017-Jul-18 06:00N 50°49' W 001°06'2 4.5
2017-Jul-18 05:31N 50°47' W 001°06'714.2
2017-Jul-18 05:00N 50°39' W 001°05'916.4
2017-Jul-18 04:26N 50°31' W 001°11'716.9
2017-Jul-18 04:00N 50°26' W 001°19'917.0
2017-Jul-18 03:30N 50°19' W 001°27'917.1
2017-Jul-18 03:00N 50°13' W 001°36'917.2
2017-Jul-18 02:30N 50°06' W 001°44'917.2
2017-Jul-18 02:00N 49°59' W 001°52'917.5
2017-Jul-18 01:30N 49°50' W 001°56'1020.5
2017-Jul-18 01:00N 49°41' W 002°03'1019.3
2017-Jul-18 00:31N 49°32' W 002°09'918.3
2017-Jul-18 00:00N 49°24' W 002°16'918.1
2017-Jul-17 23:31N 49°16' W 002°21'11 5.2
2017-Jul-17 21:24N 49°11' W 002°07'0 0.0
2017-Jul-17 20:54N 49°11' W 002°07'1 0.9
2017-Jul-17 19:44N 49°10' W 002°08'412.3
2017-Jul-17 19:22N 49°10' W 002°15'714.6
2017-Jul-17 18:55N 49°15' W 002°22'4 6.2
2017-Jul-17 18:21N 49°12' W 002°20'3 8.8
2017-Jul-17 17:58N 49°15' W 002°21'5 9.9
2017-Jul-17 17:29N 49°19' W 002°24'5 9.9
2017-Jul-17 17:00N 49°23' W 002°28'5 7.1
2017-Jul-17 16:20N 49°27' W 002°32'0 0.0
2017-Jul-17 15:54N 49°27' W 002°32'0 0.0
2017-Jul-17 15:18N 49°27' W 002°32'0 0.2
2017-Jul-17 15:00N 49°27' W 002°32'5 8.4
2017-Jul-17 14:22N 49°27' W 002°24'2314.8
2017-Jul-17 12:49N 49°45' W 002°02'413.9
2017-Jul-17 12:31N 49°49' W 001°58'815.6
2017-Jul-17 12:00N 49°56' W 001°52'816.3
2017-Jul-17 11:30N 50°02' W 001°45'816.9
2017-Jul-17 11:00N 50°09' W 001°37'917.4
2017-Jul-17 10:31N 50°16' W 001°28'917.8
2017-Jul-17 10:00N 50°23' W 001°20'1118.1
2017-Jul-17 09:23N 50°33' W 001°11'718.5
2017-Jul-17 09:00N 50°39' W 001°05'613.0
2017-Jul-17 08:30N 50°45' W 001°05'3 6.8
2017-Jul-17 08:00N 50°49' W 001°06'0 0.0
2017-Jul-17 07:30N 50°49' W 001°06'0 0.0
2017-Jul-17 07:00N 50°49' W 001°06'0 0.0
2017-Jul-17 06:31N 50°49' W 001°06'0 0.0
2017-Jul-17 06:00N 50°49' W 001°06'0 0.0
2017-Jul-17 05:30N 50°49' W 001°06'1 2.8
2017-Jul-17 05:01N 50°48' W 001°07'713.8
2017-Jul-17 04:31N 50°41' W 001°03'816.2
2017-Jul-17 04:00N 50°35' W 001°10'816.2
2017-Jul-17 03:30N 50°28' W 001°17'612.6
2017-Jul-17 03:01N 50°23' W 001°23'712.8
2017-Jul-17 02:29N 50°17' W 001°29'613.0
2017-Jul-17 02:01N 50°11' W 001°32'612.8
2017-Jul-17 01:30N 50°06' W 001°38'612.6
2017-Jul-17 01:00N 50°01' W 001°44'612.9
2017-Jul-17 00:30N 49°56' W 001°49'713.3
2017-Jul-17 00:00N 49°50' W 001°55'815.7
2017-Jul-16 23:29N 49°43' W 002°02'1020.7
2017-Jul-16 22:59N 49°34' W 002°08'1318.9
2017-Jul-16 22:17N 49°22' W 002°17'718.4
2017-Jul-16 21:53N 49°15' W 002°22'8 2.5
2017-Jul-16 18:43N 49°10' W 002°13'613.5
2017-Jul-16 18:16N 49°11' W 002°22'513.0
2017-Jul-16 17:54N 49°15' W 002°22'512.2
2017-Jul-16 17:28N 49°20' W 002°25'812.7
2017-Jul-16 16:53N 49°27' W 002°30'1 1.0
2017-Jul-16 15:37N 49°27' W 002°32'3 9.9
2017-Jul-16 15:19N 49°25' W 002°29'1214.9
2017-Jul-16 14:30N 49°32' W 002°14'1015.3
2017-Jul-16 13:52N 49°41' W 002°05'614.6
2017-Jul-16 13:25N 49°46' W 002°00'613.7
2017-Jul-16 13:01N 49°51' W 001°55'714.6
2017-Jul-16 12:31N 49°56' W 001°47'714.9
2017-Jul-16 12:00N 50°02' W 001°40'815.7
2017-Jul-16 11:30N 50°09' W 001°35'815.9
2017-Jul-16 11:01N 50°16' W 001°28'916.3
2017-Jul-16 10:27N 50°23' W 001°19'716.5
2017-Jul-16 09:59N 50°29' W 001°12'816.8
2017-Jul-16 09:31N 50°36' W 001°05'815.6
2017-Jul-16 09:01N 50°43' W 001°02'612.2
2017-Jul-16 08:31N 50°48' W 001°07'1 1.6
2017-Jul-16 08:00N 50°49' W 001°06'0 0.0
2017-Jul-16 07:31N 50°49' W 001°06'0 0.0
2017-Jul-16 07:00N 50°49' W 001°06'0 0.0
2017-Jul-16 06:30N 50°49' W 001°06'0 0.0
2017-Jul-16 06:00N 50°49' W 001°06'0 0.0
2017-Jul-16 05:30N 50°49' W 001°06'1 2.9
2017-Jul-16 05:00N 50°47' W 001°07'713.7
2017-Jul-16 04:31N 50°41' W 001°03'815.8
2017-Jul-16 04:00N 50°34' W 001°10'1114.0
2017-Jul-16 03:14N 50°26' W 001°21'312.6
2017-Jul-16 03:01N 50°24' W 001°23'612.8
2017-Jul-16 02:30N 50°18' W 001°29'713.4
2017-Jul-16 02:01N 50°13' W 001°34'612.6
2017-Jul-16 01:30N 50°07' W 001°39'612.7
2017-Jul-16 01:00N 50°02' W 001°44'713.1
2017-Jul-16 00:31N 49°56' W 001°50'813.7
2017-Jul-15 23:56N 49°50' W 001°57'3515.6
2017-Jul-15 21:43N 49°18' W 002°19'517.3
2017-Jul-15 21:27N 49°14' W 002°21'714.6
2017-Jul-15 20:58N 49°10' W 002°12'4 1.4
2017-Jul-15 18:23N 49°11' W 002°07'5 7.3
2017-Jul-15 17:42N 49°10' W 002°14'316.9
2017-Jul-15 17:31N 49°12' W 002°19'918.1
2017-Jul-15 16:59N 49°20' W 002°26'817.2
2017-Jul-15 16:30N 49°27' W 002°31'0 0.3
2017-Jul-15 15:22N 49°27' W 002°32'2 6.2
2017-Jul-15 15:00N 49°26' W 002°29'1514.6
2017-Jul-15 14:00N 49°34' W 002°10'915.9
2017-Jul-15 13:27N 49°42' W 002°05'714.7
2017-Jul-15 13:00N 49°47' W 001°59'714.2
2017-Jul-15 12:31N 49°53' W 001°52'714.6
2017-Jul-15 12:01N 49°58' W 001°45'715.0
2017-Jul-15 11:31N 50°05' W 001°40'814.9
2017-Jul-15 11:00N 50°11' W 001°32'915.6
2017-Jul-15 10:26N 50°18' W 001°25'715.9
2017-Jul-15 10:00N 50°24' W 001°18'815.9
2017-Jul-15 09:30N 50°30' W 001°11'816.2
2017-Jul-15 09:00N 50°37' W 001°04'714.0
2017-Jul-15 08:30N 50°44' W 001°03'510.6
2017-Jul-15 08:00N 50°49' W 001°06'0 0.8
2017-Jul-15 07:31N 50°49' W 001°06'0 0.0
2017-Jul-15 07:00N 50°49' W 001°06'0 0.0
2017-Jul-15 06:31N 50°49' W 001°06'0 0.0
2017-Jul-15 06:01N 50°49' W 001°06'0 0.0
2017-Jul-15 05:31N 50°49' W 001°06'2 3.1
2017-Jul-15 05:01N 50°47' W 001°07'713.9
2017-Jul-15 04:31N 50°41' W 001°03'815.2
2017-Jul-15 04:01N 50°35' W 001°10'714.9
2017-Jul-15 03:30N 50°28' W 001°16'612.3
2017-Jul-15 03:00N 50°23' W 001°22'712.8
2017-Jul-15 02:27N 50°17' W 001°28'613.1
2017-Jul-15 02:00N 50°13' W 001°33'714.1
2017-Jul-15 01:30N 50°08' W 001°42'714.1
2017-Jul-15 01:01N 50°03' W 001°50'714.3
2017-Jul-15 00:30N 49°58' W 001°57'612.8
2017-Jul-15 00:00N 49°52' W 001°60'2414.0
2017-Jul-14 22:16N 49°29' W 002°13'313.6
2017-Jul-14 22:01N 49°26' W 002°14'916.5
2017-Jul-14 21:30N 49°18' W 002°20'18 2.5
2017-Jul-14 14:03N 49°35' W 002°09'117.7
2017-Jul-14 14:00N 49°36' W 002°08'1117.7
2017-Jul-14 13:22N 49°46' W 002°00'615.7
2017-Jul-14 13:00N 49°50' W 001°56'815.6
2017-Jul-14 12:30N 49°57' W 001°49'714.9
2017-Jul-14 12:00N 50°03' W 001°42'714.7
2017-Jul-14 11:30N 50°09' W 001°35'714.7
2017-Jul-14 11:00N 50°14' W 001°28'814.9
2017-Jul-14 10:30N 50°20' W 001°21'915.4
2017-Jul-14 09:54N 50°28' W 001°13'615.2
2017-Jul-14 09:30N 50°33' W 001°08'815.8
2017-Jul-14 09:01N 50°40' W 001°01'714.5
2017-Jul-14 08:31N 50°47' W 001°06'2 4.4
2017-Jul-14 08:00N 50°49' W 001°06'0 0.0
2017-Jul-14 07:30N 50°49' W 001°06'0 0.0
2017-Jul-14 07:00N 50°49' W 001°06'0 0.0
2017-Jul-14 06:30N 50°49' W 001°06'0 0.0
2017-Jul-14 06:00N 50°49' W 001°06'0 0.0
2017-Jul-14 05:30N 50°49' W 001°06'1 3.0
2017-Jul-14 05:00N 50°47' W 001°07'713.7
2017-Jul-14 04:30N 50°41' W 001°03'815.2
2017-Jul-14 04:01N 50°34' W 001°09'712.4
2017-Jul-14 03:29N 50°29' W 001°15'711.4
2017-Jul-14 02:53N 50°23' W 001°21'411.2
2017-Jul-14 02:30N 50°20' W 001°23'611.5
2017-Jul-14 02:00N 50°15' W 001°27'612.0
2017-Jul-14 01:28N 50°10' W 001°34'714.1
2017-Jul-14 01:00N 50°04' W 001°40'713.5
2017-Jul-14 00:30N 49°59' W 001°47'713.6
2017-Jul-14 00:00N 49°54' W 001°53'1715.0
2017-Jul-13 22:55N 49°39' W 002°06'1914.4
2017-Jul-13 21:37N 49°22' W 002°17'214.1
2017-Jul-13 21:30N 49°21' W 002°18'5 1.2
2017-Jul-13 16:48N 49°21' W 002°26'7 6.0
2017-Jul-13 15:38N 49°27' W 002°32'0 0.0
2017-Jul-13 15:30N 49°27' W 002°32'0 0.0
2017-Jul-13 15:00N 49°27' W 002°32'5 8.8
2017-Jul-13 14:28N 49°27' W 002°25'918.9
2017-Jul-13 14:00N 49°32' W 002°14'917.8
2017-Jul-13 13:30N 49°40' W 002°07'917.9
2017-Jul-13 13:01N 49°47' W 001°59'816.5
2017-Jul-13 12:31N 49°53' W 001°51'815.9
2017-Jul-13 12:01N 49°59' W 001°42'815.3
2017-Jul-13 11:30N 50°05' W 001°35'816.0
2017-Jul-13 11:00N 50°13' W 001°30'815.5
2017-Jul-13 10:30N 50°19' W 001°24'815.4
2017-Jul-13 10:00N 50°25' W 001°17'815.2
2017-Jul-13 09:30N 50°32' W 001°10'815.3
2017-Jul-13 09:00N 50°38' W 001°03'713.7
2017-Jul-13 08:30N 50°44' W 001°05'4 8.7
2017-Jul-13 08:00N 50°49' W 001°06'0 0.2
2017-Jul-13 07:30N 50°49' W 001°06'0 0.0
2017-Jul-13 07:00N 50°49' W 001°06'0 0.0
2017-Jul-13 06:30N 50°49' W 001°06'0 0.0
2017-Jul-13 06:01N 50°49' W 001°06'0 0.0
2017-Jul-13 05:30N 50°49' W 001°06'2 3.5
2017-Jul-13 05:00N 50°47' W 001°06'713.3
2017-Jul-13 04:30N 50°41' W 001°03'714.7
2017-Jul-13 04:00N 50°35' W 001°10'714.4
2017-Jul-13 03:30N 50°29' W 001°16'711.4
2017-Jul-13 02:55N 50°23' W 001°22'510.9
2017-Jul-13 02:30N 50°19' W 001°26'611.3
2017-Jul-13 02:01N 50°15' W 001°31'611.9
2017-Jul-13 01:31N 50°10' W 001°36'612.6
2017-Jul-13 01:01N 50°05' W 001°42'713.3
2017-Jul-13 00:31N 49°59' W 001°48'815.7
2017-Jul-13 00:00N 49°53' W 001°55'4318.7
2017-Jul-12 21:43N 49°14' W 002°21'34 4.0
2017-Jul-12 13:11N 49°46' W 002°01'318.3
2017-Jul-12 13:00N 49°48' W 001°58'917.6
2017-Jul-12 12:31N 49°56' W 001°51'  
Track history (hours):
 
Tides and Currents Weather Stations Pressure Air Temp Water Temp Dewpoint Dewpoint Depression Visibility Wind Speed Wind Dir Waves Ship Positions

Commodore Clipper

Operator: Condor Marine Services

Last reported at 2017-Jul-22 12:30 UTC. Time now 2017-Jul-22 12:41 UTC.
Position N 49°49' W 001°56'.

Length 130 m; draft 5.2 m.

Type: Ship. MMSI: 308094000.

Date/timePositionNaut miles runAvg speedWind from/ knotsBaromVisibWave heightAir tempDewpointWater temp
2017-Jul-22 12:30N 49°49' W 001°56'918.8
2017-Jul-22 12:00N 49°56' W 001°47'918.1
2017-Jul-22 11:30N 50°04' W 001°39'917.5
2017-Jul-22 11:00N 50°12' W 001°33'2217.0
2017-Jul-22 09:44N 50°30' W 001°15'416.4
2017-Jul-22 09:29N 50°33' W 001°11'816.2
2017-Jul-22 09:00N 50°40' W 001°04'714.4
2017-Jul-22 08:30N 50°47' W 001°06'2 3.9
2017-Jul-22 08:00N 50°49' W 001°06'0 0.0
2017-Jul-22 07:30N 50°49' W 001°06'0 0.0
2017-Jul-22 07:00N 50°49' W 001°06'0 0.0
2017-Jul-22 06:30N 50°49' W 001°06'0 0.0
2017-Jul-22 06:00N 50°49' W 001°06'0 0.0
2017-Jul-22 05:30N 50°49' W 001°06'1 2.5
2017-Jul-22 05:00N 50°48' W 001°07'714.0
2017-Jul-22 04:30N 50°42' W 001°01'1215.6
2017-Jul-22 03:44N 50°31' W 001°10'1315.6
2017-Jul-22 02:54N 50°22' W 001°25'615.0
2017-Jul-22 02:30N 50°18' W 001°31'816.4
2017-Jul-22 02:00N 50°11' W 001°36'815.3
2017-Jul-22 01:30N 50°04' W 001°41'714.8
2017-Jul-22 01:00N 49°57' W 001°47'612.5
2017-Jul-22 00:30N 49°53' W 001°53'713.6
2017-Jul-22 00:00N 49°47' W 001°59'2 0.2
2017-Jul-21 12:31N 49°47' W 002°02'018.8
2017-Jul-21 12:30N 49°47' W 002°02'918.2
2017-Jul-21 12:00N 49°54' W 001°54'918.5
2017-Jul-21 11:31N 50°02' W 001°45'918.4
2017-Jul-21 11:01N 50°09' W 001°35'2517.3
2017-Jul-21 09:34N 50°30' W 001°15'417.4
2017-Jul-21 09:20N 50°33' W 001°11'717.5
2017-Jul-21 08:58N 50°39' W 001°06'614.2
2017-Jul-21 08:31N 50°45' W 001°05'4 7.4
2017-Jul-21 08:00N 50°49' W 001°06'0 0.0
2017-Jul-21 07:30N 50°49' W 001°06'0 0.0
2017-Jul-21 07:00N 50°49' W 001°06'0 0.0
2017-Jul-21 06:30N 50°49' W 001°06'0 0.0
2017-Jul-21 06:00N 50°49' W 001°06'0 0.0
2017-Jul-21 05:30N 50°49' W 001°06'1 2.4
2017-Jul-21 05:01N 50°48' W 001°07'714.1
2017-Jul-21 04:31N 50°42' W 001°01'815.6
2017-Jul-21 04:00N 50°35' W 001°08'1813.7
2017-Jul-21 02:43N 50°22' W 001°26'415.6
2017-Jul-21 02:27N 50°19' W 001°31'716.9
2017-Jul-21 02:01N 50°13' W 001°38'816.4
2017-Jul-21 01:31N 50°06' W 001°44'815.7
2017-Jul-21 01:01N 50°01' W 001°53'714.0
2017-Jul-21 00:30N 49°55' W 001°60'23 2.2
2017-Jul-20 14:00N 49°33' W 002°10'1516.3
2017-Jul-20 13:05N 49°46' W 002°00'116.7
2017-Jul-20 13:00N 49°47' W 001°59'917.2
2017-Jul-20 12:31N 49°54' W 001°50'917.6
2017-Jul-20 12:00N 50°01' W 001°42'917.8
2017-Jul-20 11:30N 50°09' W 001°35'917.5
2017-Jul-20 11:00N 50°17' W 001°29'1617.9
2017-Jul-20 10:05N 50°31' W 001°15'118.7
2017-Jul-20 10:00N 50°32' W 001°13'919.0
2017-Jul-20 09:30N 50°39' W 001°05'713.2
2017-Jul-20 09:00N 50°46' W 001°05'3 5.6
2017-Jul-20 08:30N 50°49' W 001°06'0 0.0
2017-Jul-20 08:00N 50°49' W 001°06'0 0.0
2017-Jul-20 07:30N 50°49' W 001°06'0 0.0
2017-Jul-20 07:00N 50°49' W 001°06'0 0.0
2017-Jul-20 06:30N 50°49' W 001°06'0 0.0
2017-Jul-20 06:00N 50°49' W 001°06'2 3.9
2017-Jul-20 05:31N 50°47' W 001°06'713.3
2017-Jul-20 05:00N 50°40' W 001°04'815.4
2017-Jul-20 04:30N 50°34' W 001°11'1214.3
2017-Jul-20 03:40N 50°23' W 001°20'312.8
2017-Jul-20 03:23N 50°20' W 001°23'512.8
2017-Jul-20 03:00N 50°16' W 001°27'713.2
2017-Jul-20 02:30N 50°11' W 001°34'713.5
2017-Jul-20 02:01N 50°06' W 001°40'713.7
2017-Jul-20 01:31N 50°00' W 001°46'917.2
2017-Jul-20 01:00N 49°53' W 001°53'44 5.1
2017-Jul-19 16:24N 49°10' W 002°09'810.6
2017-Jul-19 15:40N 49°13' W 002°20'515.0
2017-Jul-19 15:19N 49°18' W 002°19'615.4
2017-Jul-19 14:58N 49°23' W 002°16'1315.3
2017-Jul-19 14:07N 49°35' W 002°08'315.0
2017-Jul-19 13:55N 49°38' W 002°07'913.8
2017-Jul-19 13:18N 49°46' W 002°01'415.1
2017-Jul-19 13:00N 49°49' W 001°56'816.5
2017-Jul-19 12:30N 49°55' W 001°48'817.0
2017-Jul-19 12:01N 50°02' W 001°41'917.5
2017-Jul-19 11:30N 50°10' W 001°34'2518.0
2017-Jul-19 10:08N 50°31' W 001°14'318.8
2017-Jul-19 09:59N 50°33' W 001°12'918.8
2017-Jul-19 09:30N 50°41' W 001°03'714.4
2017-Jul-19 09:00N 50°47' W 001°07'1 2.9
2017-Jul-19 08:30N 50°49' W 001°06'0 0.0
2017-Jul-19 08:01N 50°49' W 001°06'0 0.0
2017-Jul-19 07:30N 50°49' W 001°06'0 0.0
2017-Jul-19 07:00N 50°49' W 001°06'0 0.0
2017-Jul-19 06:30N 50°49' W 001°06'2 3.4
2017-Jul-19 06:00N 50°47' W 001°06'714.2
2017-Jul-19 05:31N 50°40' W 001°04'3417.3
2017-Jul-19 03:31N 50°15' W 001°41'014.3
2017-Jul-19 03:30N 50°15' W 001°41'817.0
2017-Jul-19 03:01N 50°07' W 001°45'917.4
2017-Jul-19 02:30N 49°59' W 001°51'917.9
2017-Jul-19 02:00N 49°51' W 001°58'43 7.5
2017-Jul-18 20:16N 49°10' W 002°18'417.1
2017-Jul-18 20:00N 49°14' W 002°21'612.2
2017-Jul-18 19:30N 49°19' W 002°26'3 6.2
2017-Jul-18 18:57N 49°16' W 002°24'3 7.3
2017-Jul-18 18:30N 49°19' W 002°25'610.1
2017-Jul-18 17:57N 49°24' W 002°28'4 8.2
2017-Jul-18 17:30N 49°27' W 002°32'0 0.0
2017-Jul-18 16:57N 49°27' W 002°32'0 0.0
2017-Jul-18 16:27N 49°27' W 002°32'0 0.0
2017-Jul-18 16:00N 49°27' W 002°32'1 1.6
2017-Jul-18 15:27N 49°27' W 002°30'1812.6
2017-Jul-18 14:00N 49°38' W 002°07'611.6
2017-Jul-18 13:30N 49°43' W 002°04'612.2
2017-Jul-18 13:00N 49°48' W 001°58'815.7
2017-Jul-18 12:30N 49°54' W 001°50'816.8
2017-Jul-18 12:00N 50°01' W 001°42'917.6
2017-Jul-18 11:30N 50°08' W 001°35'917.9
2017-Jul-18 11:01N 50°16' W 001°29'918.2
2017-Jul-18 10:31N 50°23' W 001°20'918.0
2017-Jul-18 10:01N 50°31' W 001°14'918.7
2017-Jul-18 09:30N 50°39' W 001°05'714.8
2017-Jul-18 09:01N 50°46' W 001°06'2 4.9
2017-Jul-18 08:30N 50°49' W 001°06'0 0.0
2017-Jul-18 08:00N 50°49' W 001°06'0 0.0
2017-Jul-18 07:30N 50°49' W 001°06'0 0.0
2017-Jul-18 07:00N 50°49' W 001°06'0 0.0
2017-Jul-18 06:30N 50°49' W 001°06'0 0.0
2017-Jul-18 06:00N 50°49' W 001°06'2 4.5
2017-Jul-18 05:31N 50°47' W 001°06'714.2
2017-Jul-18 05:00N 50°39' W 001°05'916.4
2017-Jul-18 04:26N 50°31' W 001°11'716.9
2017-Jul-18 04:00N 50°26' W 001°19'917.0
2017-Jul-18 03:30N 50°19' W 001°27'917.1
2017-Jul-18 03:00N 50°13' W 001°36'917.2
2017-Jul-18 02:30N 50°06' W 001°44'917.2
2017-Jul-18 02:00N 49°59' W 001°52'917.5
2017-Jul-18 01:30N 49°50' W 001°56'1020.5
2017-Jul-18 01:00N 49°41' W 002°03'1019.3
2017-Jul-18 00:31N 49°32' W 002°09'918.3
2017-Jul-18 00:00N 49°24' W 002°16'918.1
2017-Jul-17 23:31N 49°16' W 002°21'11 5.2
2017-Jul-17 21:24N 49°11' W 002°07'0 0.0
2017-Jul-17 20:54N 49°11' W 002°07'1 0.9
2017-Jul-17 19:44N 49°10' W 002°08'412.3
2017-Jul-17 19:22N 49°10' W 002°15'714.6
2017-Jul-17 18:55N 49°15' W 002°22'4 6.2
2017-Jul-17 18:21N 49°12' W 002°20'3 8.8
2017-Jul-17 17:58N 49°15' W 002°21'5 9.9
2017-Jul-17 17:29N 49°19' W 002°24'5 9.9
2017-Jul-17 17:00N 49°23' W 002°28'5 7.1
2017-Jul-17 16:20N 49°27' W 002°32'0 0.0
2017-Jul-17 15:54N 49°27' W 002°32'0 0.0
2017-Jul-17 15:18N 49°27' W 002°32'0 0.2
2017-Jul-17 15:00N 49°27' W 002°32'5 8.4
2017-Jul-17 14:22N 49°27' W 002°24'2314.8
2017-Jul-17 12:49N 49°45' W 002°02'413.9
2017-Jul-17 12:31N 49°49' W 001°58'815.6
2017-Jul-17 12:00N 49°56' W 001°52'816.3
2017-Jul-17 11:30N 50°02' W 001°45'816.9
2017-Jul-17 11:00N 50°09' W 001°37'917.4
2017-Jul-17 10:31N 50°16' W 001°28'917.8
2017-Jul-17 10:00N 50°23' W 001°20'1118.1
2017-Jul-17 09:23N 50°33' W 001°11'718.5
2017-Jul-17 09:00N 50°39' W 001°05'613.0
2017-Jul-17 08:30N 50°45' W 001°05'3 6.8
2017-Jul-17 08:00N 50°49' W 001°06'0 0.0
2017-Jul-17 07:30N 50°49' W 001°06'0 0.0
2017-Jul-17 07:00N 50°49' W 001°06'0 0.0
2017-Jul-17 06:31N 50°49' W 001°06'0 0.0
2017-Jul-17 06:00N 50°49' W 001°06'0 0.0
2017-Jul-17 05:30N 50°49' W 001°06'1 2.8
2017-Jul-17 05:01N 50°48' W 001°07'713.8
2017-Jul-17 04:31N 50°41' W 001°03'816.2
2017-Jul-17 04:00N 50°35' W 001°10'816.2
2017-Jul-17 03:30N 50°28' W 001°17'612.6
2017-Jul-17 03:01N 50°23' W 001°23'712.8
2017-Jul-17 02:29N 50°17' W 001°29'613.0
2017-Jul-17 02:01N 50°11' W 001°32'612.8
2017-Jul-17 01:30N 50°06' W 001°38'612.6
2017-Jul-17 01:00N 50°01' W 001°44'612.9
2017-Jul-17 00:30N 49°56' W 001°49'713.3
2017-Jul-17 00:00N 49°50' W 001°55'815.7
2017-Jul-16 23:29N 49°43' W 002°02'1020.7
2017-Jul-16 22:59N 49°34' W 002°08'1318.9
2017-Jul-16 22:17N 49°22' W 002°17'718.4
2017-Jul-16 21:53N 49°15' W 002°22'8 2.5
2017-Jul-16 18:43N 49°10' W 002°13'613.5
2017-Jul-16 18:16N 49°11' W 002°22'513.0
2017-Jul-16 17:54N 49°15' W 002°22'512.2
2017-Jul-16 17:28N 49°20' W 002°25'812.7
2017-Jul-16 16:53N 49°27' W 002°30'1 1.0
2017-Jul-16 15:37N 49°27' W 002°32'3 9.9
2017-Jul-16 15:19N 49°25' W 002°29'1214.9
2017-Jul-16 14:30N 49°32' W 002°14'1015.3
2017-Jul-16 13:52N 49°41' W 002°05'614.6
2017-Jul-16 13:25N 49°46' W 002°00'613.7
2017-Jul-16 13:01N 49°51' W 001°55'714.6
2017-Jul-16 12:31N 49°56' W 001°47'714.9
2017-Jul-16 12:00N 50°02' W 001°40'815.7
2017-Jul-16 11:30N 50°09' W 001°35'815.9
2017-Jul-16 11:01N 50°16' W 001°28'916.3
2017-Jul-16 10:27N 50°23' W 001°19'716.5
2017-Jul-16 09:59N 50°29' W 001°12'816.8
2017-Jul-16 09:31N 50°36' W 001°05'815.6
2017-Jul-16 09:01N 50°43' W 001°02'612.2
2017-Jul-16 08:31N 50°48' W 001°07'1 1.6
2017-Jul-16 08:00N 50°49' W 001°06'0 0.0
2017-Jul-16 07:31N 50°49' W 001°06'0 0.0
2017-Jul-16 07:00N 50°49' W 001°06'0 0.0
2017-Jul-16 06:30N 50°49' W 001°06'0 0.0
2017-Jul-16 06:00N 50°49' W 001°06'0 0.0
2017-Jul-16 05:30N 50°49' W 001°06'1 2.9
2017-Jul-16 05:00N 50°47' W 001°07'713.7
2017-Jul-16 04:31N 50°41' W 001°03'815.8
2017-Jul-16 04:00N 50°34' W 001°10'1114.0
2017-Jul-16 03:14N 50°26' W 001°21'312.6
2017-Jul-16 03:01N 50°24' W 001°23'612.8
2017-Jul-16 02:30N 50°18' W 001°29'713.4
2017-Jul-16 02:01N 50°13' W 001°34'612.6
2017-Jul-16 01:30N 50°07' W 001°39'612.7
2017-Jul-16 01:00N 50°02' W 001°44'713.1
2017-Jul-16 00:31N 49°56' W 001°50'813.7
2017-Jul-15 23:56N 49°50' W 001°57'3515.6
2017-Jul-15 21:43N 49°18' W 002°19'517.3
2017-Jul-15 21:27N 49°14' W 002°21'714.6
2017-Jul-15 20:58N 49°10' W 002°12'4 1.4
2017-Jul-15 18:23N 49°11' W 002°07'5 7.3
2017-Jul-15 17:42N 49°10' W 002°14'316.9
2017-Jul-15 17:31N 49°12' W 002°19'918.1
2017-Jul-15 16:59N 49°20' W 002°26'817.2
2017-Jul-15 16:30N 49°27' W 002°31'0 0.3
2017-Jul-15 15:22N 49°27' W 002°32'2 6.2
2017-Jul-15 15:00N 49°26' W 002°29'1514.6
2017-Jul-15 14:00N 49°34' W 002°10'915.9
2017-Jul-15 13:27N 49°42' W 002°05'714.7
2017-Jul-15 13:00N 49°47' W 001°59'714.2
2017-Jul-15 12:31N 49°53' W 001°52'714.6
2017-Jul-15 12:01N 49°58' W 001°45'715.0
2017-Jul-15 11:31N 50°05' W 001°40'814.9
2017-Jul-15 11:00N 50°11' W 001°32'915.6
2017-Jul-15 10:26N 50°18' W 001°25'715.9
2017-Jul-15 10:00N 50°24' W 001°18'815.9
2017-Jul-15 09:30N 50°30' W 001°11'816.2
2017-Jul-15 09:00N 50°37' W 001°04'714.0
2017-Jul-15 08:30N 50°44' W 001°03'510.6
2017-Jul-15 08:00N 50°49' W 001°06'0 0.8
2017-Jul-15 07:31N 50°49' W 001°06'0 0.0
2017-Jul-15 07:00N 50°49' W 001°06'0 0.0
2017-Jul-15 06:31N 50°49' W 001°06'0 0.0
2017-Jul-15 06:01N 50°49' W 001°06'0 0.0
2017-Jul-15 05:31N 50°49' W 001°06'2 3.1
2017-Jul-15 05:01N 50°47' W 001°07'713.9
2017-Jul-15 04:31N 50°41' W 001°03'815.2
2017-Jul-15 04:01N 50°35' W 001°10'714.9
2017-Jul-15 03:30N 50°28' W 001°16'612.3
2017-Jul-15 03:00N 50°23' W 001°22'712.8
2017-Jul-15 02:27N 50°17' W 001°28'613.1
2017-Jul-15 02:00N 50°13' W 001°33'714.1
2017-Jul-15 01:30N 50°08' W 001°42'714.1
2017-Jul-15 01:01N 50°03' W 001°50'714.3
2017-Jul-15 00:30N 49°58' W 001°57'612.8
2017-Jul-15 00:00N 49°52' W 001°60'2414.0
2017-Jul-14 22:16N 49°29' W 002°13'313.6
2017-Jul-14 22:01N 49°26' W 002°14'916.5
2017-Jul-14 21:30N 49°18' W 002°20'18 2.5
2017-Jul-14 14:03N 49°35' W 002°09'117.7
2017-Jul-14 14:00N 49°36' W 002°08'1117.7
2017-Jul-14 13:22N 49°46' W 002°00'615.7
2017-Jul-14 13:00N 49°50' W 001°56'815.6
2017-Jul-14 12:30N 49°57' W 001°49'714.9
2017-Jul-14 12:00N 50°03' W 001°42'714.7
2017-Jul-14 11:30N 50°09' W 001°35'714.7
2017-Jul-14 11:00N 50°14' W 001°28'814.9
2017-Jul-14 10:30N 50°20' W 001°21'915.4
2017-Jul-14 09:54N 50°28' W 001°13'615.2
2017-Jul-14 09:30N 50°33' W 001°08'815.8
2017-Jul-14 09:01N 50°40' W 001°01'714.5
2017-Jul-14 08:31N 50°47' W 001°06'2 4.4
2017-Jul-14 08:00N 50°49' W 001°06'0 0.0
2017-Jul-14 07:30N 50°49' W 001°06'0 0.0
2017-Jul-14 07:00N 50°49' W 001°06'0 0.0
2017-Jul-14 06:30N 50°49' W 001°06'0 0.0
2017-Jul-14 06:00N 50°49' W 001°06'0 0.0
2017-Jul-14 05:30N 50°49' W 001°06'1 3.0
2017-Jul-14 05:00N 50°47' W 001°07'713.7
2017-Jul-14 04:30N 50°41' W 001°03'815.2
2017-Jul-14 04:01N 50°34' W 001°09'712.4
2017-Jul-14 03:29N 50°29' W 001°15'711.4
2017-Jul-14 02:53N 50°23' W 001°21'411.2
2017-Jul-14 02:30N 50°20' W 001°23'611.5
2017-Jul-14 02:00N 50°15' W 001°27'612.0
2017-Jul-14 01:28N 50°10' W 001°34'714.1
2017-Jul-14 01:00N 50°04' W 001°40'713.5
2017-Jul-14 00:30N 49°59' W 001°47'713.6
2017-Jul-14 00:00N 49°54' W 001°53'1715.0
2017-Jul-13 22:55N 49°39' W 002°06'1914.4
2017-Jul-13 21:37N 49°22' W 002°17'214.1
2017-Jul-13 21:30N 49°21' W 002°18'5 1.2
2017-Jul-13 16:48N 49°21' W 002°26'7 6.0
2017-Jul-13 15:38N 49°27' W 002°32'0 0.0
2017-Jul-13 15:30N 49°27' W 002°32'0 0.0
2017-Jul-13 15:00N 49°27' W 002°32'5 8.8
2017-Jul-13 14:28N 49°27' W 002°25'918.9
2017-Jul-13 14:00N 49°32' W 002°14'917.8
2017-Jul-13 13:30N 49°40' W 002°07'917.9
2017-Jul-13 13:01N 49°47' W 001°59'816.5
2017-Jul-13 12:31N 49°53' W 001°51'815.9
2017-Jul-13 12:01N 49°59' W 001°42'815.3
2017-Jul-13 11:30N 50°05' W 001°35'816.0
2017-Jul-13 11:00N 50°13' W 001°30'815.5
2017-Jul-13 10:30N 50°19' W 001°24'815.4
2017-Jul-13 10:00N 50°25' W 001°17'815.2
2017-Jul-13 09:30N 50°32' W 001°10'815.3
2017-Jul-13 09:00N 50°38' W 001°03'713.7
2017-Jul-13 08:30N 50°44' W 001°05'4 8.7
2017-Jul-13 08:00N 50°49' W 001°06'0 0.2
2017-Jul-13 07:30N 50°49' W 001°06'0 0.0
2017-Jul-13 07:00N 50°49' W 001°06'0 0.0
2017-Jul-13 06:30N 50°49' W 001°06'0 0.0
2017-Jul-13 06:01N 50°49' W 001°06'0 0.0
2017-Jul-13 05:30N 50°49' W 001°06'2 3.5
2017-Jul-13 05:00N 50°47' W 001°06'713.3
2017-Jul-13 04:30N 50°41' W 001°03'714.7
2017-Jul-13 04:00N 50°35' W 001°10'714.4
2017-Jul-13 03:30N 50°29' W 001°16'711.4
2017-Jul-13 02:55N 50°23' W 001°22'510.9
2017-Jul-13 02:30N 50°19' W 001°26'611.3
2017-Jul-13 02:01N 50°15' W 001°31'611.9
2017-Jul-13 01:31N 50°10' W 001°36'612.6
2017-Jul-13 01:01N 50°05' W 001°42'713.3
2017-Jul-13 00:31N 49°59' W 001°48'815.7
2017-Jul-13 00:00N 49°53' W 001°55'4318.7
2017-Jul-12 21:43N 49°14' W 002°21'34 4.0
2017-Jul-12 13:11N 49°46' W 002°01'318.3
2017-Jul-12 13:00N 49°48' W 001°58'917.6
2017-Jul-12 12:31N 49°56' W 001°51'  

Dump ship's entire track history